Ibrahim Demiral

Scout - Besiktas
3 Apr 2027
Samstag
Verarbeitung

Persönlichkeit

Anpassungsfähigkeit (19) Ehrgeiz (4) Kontroverse (2) Loyalität (9) Druck (19) Professionalität (18) Fairness (12) Temperament (1)

Profil

Trainerstil Demokratisch
Lizenz Kontinentale B
Entschlossenheit 8
Menschenführung 14
Motivation 13
Disziplin 6
Arbeitszufriedenheit
56%
Ermüdung
0%
Rolle Scout
Gehalt 101.6K p/W
Vertrag 14.03.2028

Leistung

Verhalten Gut
Trainingseffektivität
34%
Spielerentwicklung
45%
Verletzungsprävention
50%
Taktische Umsetzung
65%

Letzte Ereignisse

Nahm an einer Scouting-Besprechung teil jetzt
Nahm an einer Scouting-Besprechung teil jetzt
Spieler begutachtet jetzt
Sprach sich gegen ein Transferziel aus 7T her
Spieler begutachtet 7T her
Spieler begutachtet 7T her
Spieler begutachtet 7T her
Spieler begutachtet 7T her

Aktuell beobachtet

101
Spieler Verein Status Fähigkeit Vertrauen Beobachtet Zuletzt beobachtet Letzte Stimme
Tommy Conway Middlesbrough Aktiv 121 / 131 40% 3 01.04.2027 -
Mihailo Ivanović Millwall Aktiv 124 / 125 40% 1 01.04.2027 -
Rumarn Burrell Queens Park Rangers Aktiv 122 / 125 40% 1 01.04.2027 -
Gonzalo Plata Dinamo Moscow Aktiv 137 / 124 40% 3 31.03.2027 -
Tyrese Campbell Sheffield United Aktiv 120 / 131 40% 2 31.03.2027 -
Josh Coburn Millwall Aktiv 123 / 115 40% 1 31.03.2027 -
Konan N'Dri Lecce Aktiv 133 / 131 40% 1 28.03.2027 -
Sam Greenwood Bristol City Aktiv 123 / 125 40% 1 28.03.2027 -
Jovon Makama Norwich City Aktiv 123 / 124 40% 1 28.03.2027 -
Jean-Luc Morin Tours Aktiv 142 / 140 40% 12 27.03.2027 -
Camilo Durán Bloemfontein Celtic Aktiv 121 / 114 40% 2 27.03.2027 -
Brayan León Mamelodi Sundowns Aktiv 119 / 120 40% 2 27.03.2027 -
Adnan Courtois KV Oostende Aktiv 125 / 128 40% 5 26.03.2027 -
Yousef Salech Cardiff City Aktiv 124 / 119 40% 5 23.03.2027 -
Lorent Tolaj Plymouth Argyle Aktiv 115 / 115 40% 4 21.03.2027 -
Aidomo Emakhu Oxford United Aktiv 126 / 131 40% 2 21.03.2027 -
Stav Toriel Hapoel Tel Aviv Aktiv 125 / 128 40% 2 20.03.2027 -
Cameron Archer Southampton Aktiv 135 / 134 40% 1 19.03.2027 -
Richard Koné Queens Park Rangers Aktiv 132 / 123 40% 1 18.03.2027 -
Morgan Whittaker Middlesbrough Aktiv 130 / 125 40% 1 18.03.2027 -
Enis Destan Konyaspor Aktiv 127 / 125 40% 1 18.03.2027 -
Aune Heggebø West Bromwich Albion Aktiv 123 / 119 40% 4 17.03.2027 -
Will Lankshear Middlesbrough Aktiv 129 / 123 40% 1 16.03.2027 -
Bertuğ Yıldırım Basaksehir Aktiv 121 / 121 40% 1 15.03.2027 -
Mathias Jørgensen Blackburn Rovers Aktiv 115 / 118 40% 2 14.03.2027 -
Afimico Pululu Al-Hazem Aktiv 139 / 131 40% 2 14.03.2027 -
Percy Erasmus SuperSport United Aktiv 124 / 122 40% 1 14.03.2027 -
Luciano Gondou CSKA Moscow Aktiv 125 / 136 40% 2 13.03.2027 -
Dom Ballard Leyton Orient Aktiv 114 / 118 40% 2 12.03.2027 -
Jackson Muleka Konyaspor Abgelehnt 130 / 122 40% 1 12.03.2027 Mehr Infos nötig
Mahmoud Al Bloushi Al Shabab Aktiv 143 / 141 40% 26 11.03.2027 -
Aral Şimşir Trabzonspor Aktiv 130 / 133 40% 1 10.03.2027 -
Ashkan Shojaei Siah Jamegan Aktiv 120 / 124 40% 1 25.01.2027 -
Soufiane Rahimi Al Ain Verloren 147 / 136 40% 10 12.01.2027 -
Adrian Benedyczak Kasimpasa Verloren 126 / 129 76% 1 01.01.2027 Befürworten
Diego Gómez Brighton Aktiv 142 / 137 40% 6 30.12.2026 -
Michel Ndary Adopo Cagliari Aktiv 130 / 138 40% 2 30.12.2026 -
Gustavo Mantuan Zenit Aktiv 136 / 132 40% 1 30.12.2026 -
Iván Martín Racing Club Aktiv 146 / 139 40% 4 28.12.2026 -
Rodrigo Huescas FC Copenhagen Aktiv 131 / 139 40% 2 28.12.2026 -
Marco Brescianini Fiorentina Aktiv 148 / 148 40% 1 28.12.2026 -
Ángel Correa River Plate Verloren 146 / 139 40% 17 26.12.2026 -
Luka Jović AEK Aktiv 149 / 133 40% 3 26.12.2026 -
Akor Adams Venezia Abgelehnt 139 / 135 40% 4 26.12.2026 Ablehnen
Ivan Toney Al-Ahli Aktiv 142 / 147 40% 21 24.12.2026 -
Taiwo Awoniyi Coventry City Aktiv 138 / 134 40% 1 24.12.2026 -
Randal Kolo Muani Juventus Aktiv 146 / 143 40% 1 22.12.2026 -
Nikola Krstović Atalanta Aktiv 142 / 141 40% 6 21.12.2026 -
Samú Al-Nassr Aktiv 154 / 139 40% 6 19.12.2026 -
Jorge Cuenca Fulham Aktiv 142 / 141 40% 1 19.12.2026 -
Francesco Pio Esposito Inter Aktiv 150 / 149 40% 1 17.12.2026 -
Bećir Omeragić Basel Aktiv 131 / 138 40% 1 11.12.2026 -
Enrico Delprato Parma Aktiv 133 / 141 40% 1 04.12.2026 -
Thierry Rendall Correia Venezia Aktiv 133 / 131 40% 1 04.12.2026 -
Nicolò Fagioli Fiorentina Aktiv 139 / 147 40% 1 04.12.2026 -
Djed Spence Inter Aktiv 140 / 138 40% 4 01.12.2026 -
Leo Østigård Genoa Aktiv 131 / 132 40% 2 01.12.2026 -
Mohamed Simakan Al-Nassr Aktiv 149 / 137 40% 8 30.11.2026 -
Matvey Kislyak CSKA Moscow Aktiv 127 / 131 40% 1 30.11.2026 -
Odilon Kossounou Atalanta Aktiv 154 / 146 40% 1 30.11.2026 -
Saúl Coco Torino Aktiv 129 / 131 40% 2 29.11.2026 -
Emanuele Valeri Parma Aktiv 142 / 145 40% 1 29.11.2026 -
Caleb Yirenkyi Coventry City Aktiv 136 / 137 40% 1 29.11.2026 -
Brooke Norton-Cuffy Genoa Aktiv 141 / 137 40% 2 24.11.2026 -
Jacob Greaves Ipswich Town Aktiv 137 / 135 40% 2 24.11.2026 -
Antonino Gallo Lecce Aktiv 138 / 127 40% 1 10.11.2026 -
Sidny Lopes Cabral Trabzonspor Aktiv 134 / 124 40% 1 10.11.2026 -
Nadir Zortea Bologna Aktiv 135 / 135 40% 1 09.11.2026 -
Artem Dovbyk AS Roma Aktiv 136 / 138 40% 1 09.11.2026 -
Yacine Adli Al-Shabab Aktiv 138 / 129 40% 7 31.10.2026 -
Roger Ibañez Al-Ahli Aktiv 146 / 157 40% 7 31.10.2026 -
Ngal'Ayel Mukau LOSC Lille Aktiv 143 / 136 40% 2 30.10.2026 -
Diego Costa Krasnodar Aktiv 145 / 142 40% 6 27.10.2026 -
Pascal Struijk Brighton Aktiv 130 / 143 40% 3 13.10.2026 -
Youssef En-Nesyri Al-Ittihad Aktiv 133 / 132 40% 2 10.10.2026 -
Arturo Cipriani Astra Aktiv 136 / 136 40% 7 09.10.2026 -
Taiyo Koga Kashiwa Reysol Aktiv 144 / 141 40% 5 09.10.2026 -
Julián Quiñones Al-Qadisiyah Aktiv 136 / 135 40% 1 06.10.2026 -
Kings Kangwa Panathinaikos Aktiv 128 / 140 40% 1 28.09.2026 -
Pedro Malheiro Al Wasl Aktiv 130 / 134 40% 3 13.09.2026 -
Yeray Athletic Bilbao Aktiv 139 / 145 40% 1 28.08.2026 -
Tormena Krasnodar Aktiv 140 / 134 40% 1 28.08.2026 -
Chancel Mbemba Al-Diriyah Aktiv 130 / 141 40% 1 28.08.2026 -
Patrick Berg Bodo/Glimt Aktiv 133 / 133 40% 2 27.08.2026 -
Gedson Fernandes Spartak Moscow Aktiv 127 / 139 40% 1 27.08.2026 -
Fabinho Trabzonspor Aktiv 143 / 145 40% 1 27.08.2026 -
Jaime Seoane Al-Faisaly Aktiv 131 / 139 40% 1 22.08.2026 -
Douglas Santos Zenit Aktiv 140 / 147 40% 1 22.08.2026 -
Davide Calabria Panathinaikos Aktiv 136 / 143 40% 1 21.08.2026 -
Shota Fukuoka Gamba Osaka Aktiv 144 / 123 40% 1 19.08.2026 -
Nino Zenit Aktiv 138 / 145 40% 1 19.08.2026 -
Emil Krafth Newcastle United Aktiv 128 / 139 40% 1 19.08.2026 -
Rúben Neves Al-Hilal Aktiv 151 / 144 40% 1 06.08.2026 -
Pablo Maffeo Olympiacos Aktiv 144 / 145 40% 1 06.08.2026 -
Nicolás Fernández Mercau New York City Aktiv 126 / 129 40% 1 05.08.2026 -
Ryan Gauld Vancouver Whitecaps Aktiv 130 / 142 40% 1 03.08.2026 -
Théo Hernández Al-Hilal Aktiv 140 / 147 40% 1 03.08.2026 -
Galeno Al-Ahli Aktiv 139 / 146 40% 1 03.08.2026 Mehr Infos nötig
Carlos Álvarez Levante Aktiv 129 / 139 40% 1 01.08.2026 -
Ferran Torres Paris Saint-Germain Aktiv 165 / 161 40% 1 01.08.2026 -
Antonio Blanco Alavés Aktiv 134 / 131 40% 1 01.08.2026 -